sensor_id;sensor_type;location;lat;lon;timestamp;P1;durP1;ratioP1;P2;durP2;ratioP2
67819;SDS011;54618;52.018;5.576;2023-05-10T00:00:32;3.63;;;2.05;;
67819;SDS011;54618;52.018;5.576;2023-05-10T00:02:58;4.63;;;2.05;;
67819;SDS011;54618;52.018;5.576;2023-05-10T00:05:23;4.93;;;2.10;;
67819;SDS011;54618;52.018;5.576;2023-05-10T00:07:49;3.63;;;1.90;;
67819;SDS011;54618;52.018;5.576;2023-05-10T00:10:14;4.55;;;2.25;;
67819;SDS011;54618;52.018;5.576;2023-05-10T00:12:40;4.28;;;2.30;;
67819;SDS011;54618;52.018;5.576;2023-05-10T00:15:06;3.70;;;1.92;;
67819;SDS011;54618;52.018;5.576;2023-05-10T00:17:32;3.75;;;2.05;;
67819;SDS011;54618;52.018;5.576;2023-05-10T00:19:57;3.50;;;1.95;;
67819;SDS011;54618;52.018;5.576;2023-05-10T00:22:23;3.42;;;2.10;;
67819;SDS011;54618;52.018;5.576;2023-05-10T00:24:49;3.95;;;2.00;;
67819;SDS011;54618;52.018;5.576;2023-05-10T00:27:14;4.20;;;1.90;;
67819;SDS011;54618;52.018;5.576;2023-05-10T00:29:40;4.70;;;2.28;;
67819;SDS011;54618;52.018;5.576;2023-05-10T00:32:05;3.63;;;2.10;;
67819;SDS011;54618;52.018;5.576;2023-05-10T00:34:31;3.88;;;2.10;;
67819;SDS011;54618;52.018;5.576;2023-05-10T00:36:57;4.07;;;2.33;;
67819;SDS011;54618;52.018;5.576;2023-05-10T00:39:22;4.15;;;2.38;;
67819;SDS011;54618;52.018;5.576;2023-05-10T00:41:48;3.40;;;1.95;;
67819;SDS011;54618;52.018;5.576;2023-05-10T00:44:14;4.85;;;2.35;;
67819;SDS011;54618;52.018;5.576;2023-05-10T00:46:39;5.30;;;2.45;;
67819;SDS011;54618;52.018;5.576;2023-05-10T00:49:06;4.32;;;2.28;;
67819;SDS011;54618;52.018;5.576;2023-05-10T00:51:31;3.83;;;1.90;;
67819;SDS011;54618;52.018;5.576;2023-05-10T00:53:57;4.30;;;2.33;;
67819;SDS011;54618;52.018;5.576;2023-05-10T00:56:24;4.22;;;2.30;;
67819;SDS011;54618;52.018;5.576;2023-05-10T00:58:50;4.57;;;2.53;;
67819;SDS011;54618;52.018;5.576;2023-05-10T01:01:16;3.85;;;2.38;;
67819;SDS011;54618;52.018;5.576;2023-05-10T01:03:41;3.83;;;2.25;;
67819;SDS011;54618;52.018;5.576;2023-05-10T01:06:07;3.88;;;2.10;;
67819;SDS011;54618;52.018;5.576;2023-05-10T01:08:34;4.25;;;2.20;;
67819;SDS011;54618;52.018;5.576;2023-05-10T01:11:01;3.47;;;2.03;;
67819;SDS011;54618;52.018;5.576;2023-05-10T01:13:33;4.40;;;2.20;;
67819;SDS011;54618;52.018;5.576;2023-05-10T01:16:02;5.00;;;2.35;;
67819;SDS011;54618;52.018;5.576;2023-05-10T01:18:28;4.72;;;2.25;;
67819;SDS011;54618;52.018;5.576;2023-05-10T01:21:11;3.75;;;2.10;;
67819;SDS011;54618;52.018;5.576;2023-05-10T01:23:57;3.75;;;1.95;;
67819;SDS011;54618;52.018;5.576;2023-05-10T01:30:00;3.83;;;2.05;;
67819;SDS011;54618;52.018;5.576;2023-05-10T01:32:36;5.57;;;2.40;;
67819;SDS011;54618;52.018;5.576;2023-05-10T01:40:39;4.15;;;2.20;;
67819;SDS011;54618;52.018;5.576;2023-05-10T01:43:11;3.83;;;2.30;;
67819;SDS011;54618;52.018;5.576;2023-05-10T01:45:55;4.63;;;2.15;;
67819;SDS011;54618;52.018;5.576;2023-05-10T01:48:54;4.47;;;2.30;;
67819;SDS011;54618;52.018;5.576;2023-05-10T01:51:25;4.40;;;2.28;;
67819;SDS011;54618;52.018;5.576;2023-05-10T01:54:00;3.80;;;2.50;;
67819;SDS011;54618;52.018;5.576;2023-05-10T01:56:28;4.45;;;2.33;;
67819;SDS011;54618;52.018;5.576;2023-05-10T01:58:56;4.88;;;2.22;;
67819;SDS011;54618;52.018;5.576;2023-05-10T02:01:23;3.47;;;2.00;;
67819;SDS011;54618;52.018;5.576;2023-05-10T02:03:51;4.60;;;2.30;;
67819;SDS011;54618;52.018;5.576;2023-05-10T02:06:18;3.70;;;2.20;;
67819;SDS011;54618;52.018;5.576;2023-05-10T02:08:47;3.97;;;2.30;;
67819;SDS011;54618;52.018;5.576;2023-05-10T02:11:15;5.55;;;2.60;;
67819;SDS011;54618;52.018;5.576;2023-05-10T02:13:43;3.95;;;2.03;;
67819;SDS011;54618;52.018;5.576;2023-05-10T02:16:10;5.22;;;2.50;;
67819;SDS011;54618;52.018;5.576;2023-05-10T02:18:37;4.18;;;2.25;;
67819;SDS011;54618;52.018;5.576;2023-05-10T02:21:05;3.47;;;1.95;;
67819;SDS011;54618;52.018;5.576;2023-05-10T02:23:32;3.15;;;2.00;;
67819;SDS011;54618;52.018;5.576;2023-05-10T02:25:59;4.50;;;2.45;;
67819;SDS011;54618;52.018;5.576;2023-05-10T02:28:26;5.03;;;2.50;;
67819;SDS011;54618;52.018;5.576;2023-05-10T02:30:54;4.75;;;2.20;;
67819;SDS011;54618;52.018;5.576;2023-05-10T02:33:20;4.05;;;2.40;;
67819;SDS011;54618;52.018;5.576;2023-05-10T02:35:47;4.30;;;2.50;;
67819;SDS011;54618;52.018;5.576;2023-05-10T02:38:14;3.83;;;2.20;;
67819;SDS011;54618;52.018;5.576;2023-05-10T02:40:41;4.85;;;2.65;;
67819;SDS011;54618;52.018;5.576;2023-05-10T02:43:09;3.67;;;2.15;;
67819;SDS011;54618;52.018;5.576;2023-05-10T02:45:39;4.93;;;2.80;;
67819;SDS011;54618;52.018;5.576;2023-05-10T02:48:06;4.30;;;2.42;;
67819;SDS011;54618;52.018;5.576;2023-05-10T02:50:32;5.07;;;2.70;;
67819;SDS011;54618;52.018;5.576;2023-05-10T02:53:02;4.38;;;2.50;;
67819;SDS011;54618;52.018;5.576;2023-05-10T02:55:38;5.60;;;2.97;;
67819;SDS011;54618;52.018;5.576;2023-05-10T02:58:07;4.63;;;2.80;;
67819;SDS011;54618;52.018;5.576;2023-05-10T03:00:32;4.95;;;2.75;;
67819;SDS011;54618;52.018;5.576;2023-05-10T03:02:58;4.63;;;2.60;;
67819;SDS011;54618;52.018;5.576;2023-05-10T03:05:24;5.35;;;2.35;;
67819;SDS011;54618;52.018;5.576;2023-05-10T03:07:50;4.68;;;2.72;;
67819;SDS011;54618;52.018;5.576;2023-05-10T03:10:17;5.22;;;2.88;;
67819;SDS011;54618;52.018;5.576;2023-05-10T03:12:57;5.10;;;2.63;;
67819;SDS011;54618;52.018;5.576;2023-05-10T03:15:47;3.78;;;2.10;;
67819;SDS011;54618;52.018;5.576;2023-05-10T03:18:28;3.92;;;2.08;;
67819;SDS011;54618;52.018;5.576;2023-05-10T03:21:02;6.55;;;2.38;;
67819;SDS011;54618;52.018;5.576;2023-05-10T03:23:40;4.70;;;2.20;;
67819;SDS011;54618;52.018;5.576;2023-05-10T03:26:08;9.13;;;2.50;;
67819;SDS011;54618;52.018;5.576;2023-05-10T03:28:34;4.18;;;2.42;;
67819;SDS011;54618;52.018;5.576;2023-05-10T03:31:01;4.57;;;2.40;;
67819;SDS011;54618;52.018;5.576;2023-05-10T03:33:29;4.30;;;2.60;;
67819;SDS011;54618;52.018;5.576;2023-05-10T03:35:54;5.78;;;3.08;;
67819;SDS011;54618;52.018;5.576;2023-05-10T03:38:20;4.53;;;2.75;;
67819;SDS011;54618;52.018;5.576;2023-05-10T03:40:45;4.60;;;2.45;;
67819;SDS011;54618;52.018;5.576;2023-05-10T03:43:11;4.63;;;2.50;;
67819;SDS011;54618;52.018;5.576;2023-05-10T03:45:36;6.95;;;2.80;;
67819;SDS011;54618;52.018;5.576;2023-05-10T03:48:02;5.80;;;3.03;;
67819;SDS011;54618;52.018;5.576;2023-05-10T03:50:28;4.85;;;2.60;;
67819;SDS011;54618;52.018;5.576;2023-05-10T03:52:53;6.22;;;2.70;;
67819;SDS011;54618;52.018;5.576;2023-05-10T03:55:19;4.40;;;2.80;;
67819;SDS011;54618;52.018;5.576;2023-05-10T03:57:44;5.03;;;2.70;;
67819;SDS011;54618;52.018;5.576;2023-05-10T04:00:10;4.75;;;2.83;;
67819;SDS011;54618;52.018;5.576;2023-05-10T04:02:36;5.25;;;2.90;;
67819;SDS011;54618;52.018;5.576;2023-05-10T04:05:02;4.50;;;2.70;;
67819;SDS011;54618;52.018;5.576;2023-05-10T04:07:28;4.50;;;2.67;;
67819;SDS011;54618;52.018;5.576;2023-05-10T04:09:54;6.20;;;2.65;;
67819;SDS011;54618;52.018;5.576;2023-05-10T04:12:19;4.60;;;2.63;;
67819;SDS011;54618;52.018;5.576;2023-05-10T04:14:45;4.18;;;2.47;;
67819;SDS011;54618;52.018;5.576;2023-05-10T04:17:10;6.10;;;3.08;;
67819;SDS011;54618;52.018;5.576;2023-05-10T04:19:36;5.15;;;3.10;;
67819;SDS011;54618;52.018;5.576;2023-05-10T04:22:02;4.43;;;2.97;;
67819;SDS011;54618;52.018;5.576;2023-05-10T04:24:28;4.78;;;2.65;;
67819;SDS011;54618;52.018;5.576;2023-05-10T04:26:54;5.35;;;2.83;;
67819;SDS011;54618;52.018;5.576;2023-05-10T04:29:20;4.65;;;2.60;;
67819;SDS011;54618;52.018;5.576;2023-05-10T04:31:45;4.85;;;2.70;;
67819;SDS011;54618;52.018;5.576;2023-05-10T04:34:11;6.20;;;3.20;;
67819;SDS011;54618;52.018;5.576;2023-05-10T04:36:37;5.68;;;2.88;;
67819;SDS011;54618;52.018;5.576;2023-05-10T04:39:03;6.45;;;2.80;;
67819;SDS011;54618;52.018;5.576;2023-05-10T04:41:28;6.05;;;2.78;;
67819;SDS011;54618;52.018;5.576;2023-05-10T04:43:55;4.57;;;2.72;;
67819;SDS011;54618;52.018;5.576;2023-05-10T04:46:20;4.93;;;2.83;;
67819;SDS011;54618;52.018;5.576;2023-05-10T04:48:46;4.03;;;2.65;;
67819;SDS011;54618;52.018;5.576;2023-05-10T04:51:12;4.72;;;2.80;;
67819;SDS011;54618;52.018;5.576;2023-05-10T04:53:37;4.88;;;2.65;;
67819;SDS011;54618;52.018;5.576;2023-05-10T04:56:03;4.35;;;2.70;;
67819;SDS011;54618;52.018;5.576;2023-05-10T04:58:29;5.88;;;2.92;;
67819;SDS011;54618;52.018;5.576;2023-05-10T05:00:54;5.35;;;2.97;;
67819;SDS011;54618;52.018;5.576;2023-05-10T05:03:20;4.47;;;2.85;;
67819;SDS011;54618;52.018;5.576;2023-05-10T05:05:45;5.93;;;2.85;;
67819;SDS011;54618;52.018;5.576;2023-05-10T05:08:11;5.13;;;2.70;;
67819;SDS011;54618;52.018;5.576;2023-05-10T05:10:36;5.97;;;3.20;;
67819;SDS011;54618;52.018;5.576;2023-05-10T05:13:02;4.80;;;3.03;;
67819;SDS011;54618;52.018;5.576;2023-05-10T05:15:27;4.15;;;2.60;;
67819;SDS011;54618;52.018;5.576;2023-05-10T05:17:53;5.05;;;2.80;;
67819;SDS011;54618;52.018;5.576;2023-05-10T05:20:18;4.72;;;2.83;;
67819;SDS011;54618;52.018;5.576;2023-05-10T05:22:44;5.70;;;3.08;;
67819;SDS011;54618;52.018;5.576;2023-05-10T05:25:10;6.50;;;3.05;;
67819;SDS011;54618;52.018;5.576;2023-05-10T05:27:36;5.38;;;2.90;;
67819;SDS011;54618;52.018;5.576;2023-05-10T05:30:02;4.63;;;2.83;;
67819;SDS011;54618;52.018;5.576;2023-05-10T05:32:29;5.43;;;3.20;;
67819;SDS011;54618;52.018;5.576;2023-05-10T05:34:55;4.22;;;2.33;;
67819;SDS011;54618;52.018;5.576;2023-05-10T05:37:21;3.78;;;2.30;;
67819;SDS011;54618;52.018;5.576;2023-05-10T05:39:47;3.88;;;2.20;;
67819;SDS011;54618;52.018;5.576;2023-05-10T05:42:13;3.03;;;2.00;;
67819;SDS011;54618;52.018;5.576;2023-05-10T05:44:39;3.72;;;2.03;;
67819;SDS011;54618;52.018;5.576;2023-05-10T05:47:05;3.53;;;1.98;;
67819;SDS011;54618;52.018;5.576;2023-05-10T05:49:31;3.40;;;2.00;;
67819;SDS011;54618;52.018;5.576;2023-05-10T05:52:00;3.42;;;1.90;;
67819;SDS011;54618;52.018;5.576;2023-05-10T05:54:27;3.30;;;1.80;;
67819;SDS011;54618;52.018;5.576;2023-05-10T05:56:57;2.72;;;1.70;;
67819;SDS011;54618;52.018;5.576;2023-05-10T05:59:23;4.22;;;2.00;;
67819;SDS011;54618;52.018;5.576;2023-05-10T06:01:49;2.63;;;1.77;;
67819;SDS011;54618;52.018;5.576;2023-05-10T06:04:14;3.30;;;1.80;;
67819;SDS011;54618;52.018;5.576;2023-05-10T06:06:41;2.90;;;1.90;;
67819;SDS011;54618;52.018;5.576;2023-05-10T06:09:07;3.55;;;1.88;;
67819;SDS011;54618;52.018;5.576;2023-05-10T06:11:33;3.33;;;2.00;;
67819;SDS011;54618;52.018;5.576;2023-05-10T06:13:59;3.05;;;1.77;;
67819;SDS011;54618;52.018;5.576;2023-05-10T06:16:25;2.83;;;1.70;;
67819;SDS011;54618;52.018;5.576;2023-05-10T06:18:51;3.28;;;1.80;;
67819;SDS011;54618;52.018;5.576;2023-05-10T06:21:16;3.65;;;1.95;;
67819;SDS011;54618;52.018;5.576;2023-05-10T06:23:42;3.13;;;1.83;;
67819;SDS011;54618;52.018;5.576;2023-05-10T06:26:07;3.65;;;2.10;;
67819;SDS011;54618;52.018;5.576;2023-05-10T06:28:33;2.72;;;1.67;;
67819;SDS011;54618;52.018;5.576;2023-05-10T06:30:59;3.33;;;2.00;;
67819;SDS011;54618;52.018;5.576;2023-05-10T06:33:25;4.18;;;2.10;;
67819;SDS011;54618;52.018;5.576;2023-05-10T06:35:50;3.45;;;1.90;;
67819;SDS011;54618;52.018;5.576;2023-05-10T06:38:16;3.40;;;2.00;;
67819;SDS011;54618;52.018;5.576;2023-05-10T06:40:42;3.58;;;1.92;;
67819;SDS011;54618;52.018;5.576;2023-05-10T06:43:07;3.38;;;2.00;;
67819;SDS011;54618;52.018;5.576;2023-05-10T06:45:33;2.95;;;1.80;;
67819;SDS011;54618;52.018;5.576;2023-05-10T06:47:59;3.65;;;2.20;;
67819;SDS011;54618;52.018;5.576;2023-05-10T06:50:25;4.00;;;2.00;;
67819;SDS011;54618;52.018;5.576;2023-05-10T06:52:50;3.42;;;1.90;;
67819;SDS011;54618;52.018;5.576;2023-05-10T06:55:16;2.92;;;1.70;;
67819;SDS011;54618;52.018;5.576;2023-05-10T06:57:42;3.50;;;2.05;;
67819;SDS011;54618;52.018;5.576;2023-05-10T07:00:07;3.88;;;1.90;;
67819;SDS011;54618;52.018;5.576;2023-05-10T07:02:34;3.53;;;1.98;;
67819;SDS011;54618;52.018;5.576;2023-05-10T07:05:00;3.30;;;2.25;;
67819;SDS011;54618;52.018;5.576;2023-05-10T07:07:26;3.30;;;1.98;;
67819;SDS011;54618;52.018;5.576;2023-05-10T07:09:51;3.25;;;1.98;;
67819;SDS011;54618;52.018;5.576;2023-05-10T07:12:17;3.35;;;2.20;;
67819;SDS011;54618;52.018;5.576;2023-05-10T07:14:42;2.80;;;1.95;;
67819;SDS011;54618;52.018;5.576;2023-05-10T07:17:08;3.38;;;2.00;;
67819;SDS011;54618;52.018;5.576;2023-05-10T07:19:34;3.55;;;1.90;;
67819;SDS011;54618;52.018;5.576;2023-05-10T07:22:00;3.55;;;2.00;;
67819;SDS011;54618;52.018;5.576;2023-05-10T07:24:25;3.33;;;2.10;;
67819;SDS011;54618;52.018;5.576;2023-05-10T07:26:51;2.85;;;1.80;;
67819;SDS011;54618;52.018;5.576;2023-05-10T07:29:16;2.70;;;1.90;;
67819;SDS011;54618;52.018;5.576;2023-05-10T07:31:42;3.35;;;2.13;;
67819;SDS011;54618;52.018;5.576;2023-05-10T07:34:08;3.35;;;2.22;;
67819;SDS011;54618;52.018;5.576;2023-05-10T07:36:34;4.45;;;2.33;;
67819;SDS011;54618;52.018;5.576;2023-05-10T07:39:00;4.03;;;2.20;;
67819;SDS011;54618;52.018;5.576;2023-05-10T07:41:25;3.15;;;2.00;;
67819;SDS011;54618;52.018;5.576;2023-05-10T07:43:51;2.95;;;1.88;;
67819;SDS011;54618;52.018;5.576;2023-05-10T07:46:17;4.32;;;2.15;;
67819;SDS011;54618;52.018;5.576;2023-05-10T07:48:44;4.47;;;2.13;;
67819;SDS011;54618;52.018;5.576;2023-05-10T07:51:09;3.63;;;2.33;;
67819;SDS011;54618;52.018;5.576;2023-05-10T07:53:35;3.85;;;2.20;;
67819;SDS011;54618;52.018;5.576;2023-05-10T07:56:19;3.22;;;2.08;;
67819;SDS011;54618;52.018;5.576;2023-05-10T07:58:45;3.30;;;1.95;;
67819;SDS011;54618;52.018;5.576;2023-05-10T08:01:10;6.70;;;2.35;;
67819;SDS011;54618;52.018;5.576;2023-05-10T08:03:36;4.07;;;2.15;;
67819;SDS011;54618;52.018;5.576;2023-05-10T08:06:01;3.95;;;2.20;;
67819;SDS011;54618;52.018;5.576;2023-05-10T08:08:28;3.28;;;1.80;;
67819;SDS011;54618;52.018;5.576;2023-05-10T08:10:53;5.10;;;1.90;;
67819;SDS011;54618;52.018;5.576;2023-05-10T08:13:19;3.25;;;1.90;;
67819;SDS011;54618;52.018;5.576;2023-05-10T08:15:46;3.25;;;1.83;;
67819;SDS011;54618;52.018;5.576;2023-05-10T08:18:11;3.42;;;2.00;;
67819;SDS011;54618;52.018;5.576;2023-05-10T08:20:37;3.33;;;1.90;;
67819;SDS011;54618;52.018;5.576;2023-05-10T08:23:02;3.67;;;2.20;;
67819;SDS011;54618;52.018;5.576;2023-05-10T08:25:28;4.00;;;2.00;;
67819;SDS011;54618;52.018;5.576;2023-05-10T08:27:53;4.18;;;2.03;;
67819;SDS011;54618;52.018;5.576;2023-05-10T08:30:19;4.03;;;2.10;;
67819;SDS011;54618;52.018;5.576;2023-05-10T08:32:44;3.58;;;2.00;;
67819;SDS011;54618;52.018;5.576;2023-05-10T08:35:10;3.10;;;1.92;;
67819;SDS011;54618;52.018;5.576;2023-05-10T08:37:35;4.30;;;2.08;;
67819;SDS011;54618;52.018;5.576;2023-05-10T08:40:01;3.42;;;1.90;;
67819;SDS011;54618;52.018;5.576;2023-05-10T08:42:28;4.50;;;2.22;;
67819;SDS011;54618;52.018;5.576;2023-05-10T08:44:57;3.35;;;2.20;;
67819;SDS011;54618;52.018;5.576;2023-05-10T08:47:24;5.10;;;1.95;;
67819;SDS011;54618;52.018;5.576;2023-05-10T08:49:50;3.58;;;2.03;;
67819;SDS011;54618;52.018;5.576;2023-05-10T08:52:17;4.10;;;2.28;;
67819;SDS011;54618;52.018;5.576;2023-05-10T08:54:43;4.10;;;2.13;;
67819;SDS011;54618;52.018;5.576;2023-05-10T08:57:09;3.97;;;1.80;;
67819;SDS011;54618;52.018;5.576;2023-05-10T08:59:35;5.05;;;2.10;;
67819;SDS011;54618;52.018;5.576;2023-05-10T09:02:05;4.05;;;2.00;;
67819;SDS011;54618;52.018;5.576;2023-05-10T09:04:32;3.83;;;2.00;;
67819;SDS011;54618;52.018;5.576;2023-05-10T09:06:58;3.33;;;2.10;;
67819;SDS011;54618;52.018;5.576;2023-05-10T09:09:23;3.15;;;2.00;;
67819;SDS011;54618;52.018;5.576;2023-05-10T09:11:51;3.72;;;2.05;;
67819;SDS011;54618;52.018;5.576;2023-05-10T09:14:17;2.78;;;1.80;;
67819;SDS011;54618;52.018;5.576;2023-05-10T09:16:44;2.88;;;1.70;;
67819;SDS011;54618;52.018;5.576;2023-05-10T09:19:10;4.15;;;2.28;;
67819;SDS011;54618;52.018;5.576;2023-05-10T09:21:36;3.70;;;2.00;;
67819;SDS011;54618;52.018;5.576;2023-05-10T09:24:05;3.05;;;2.15;;
67819;SDS011;54618;52.018;5.576;2023-05-10T09:26:31;4.07;;;1.73;;
67819;SDS011;54618;52.018;5.576;2023-05-10T09:28:58;2.78;;;1.77;;
67819;SDS011;54618;52.018;5.576;2023-05-10T09:31:24;3.20;;;1.98;;
67819;SDS011;54618;52.018;5.576;2023-05-10T09:34:07;3.28;;;1.90;;
67819;SDS011;54618;52.018;5.576;2023-05-10T09:36:33;3.03;;;2.00;;
67819;SDS011;54618;52.018;5.576;2023-05-10T09:38:58;3.58;;;2.03;;
67819;SDS011;54618;52.018;5.576;2023-05-10T09:41:25;3.83;;;2.10;;
67819;SDS011;54618;52.018;5.576;2023-05-10T09:43:51;5.25;;;1.98;;
67819;SDS011;54618;52.018;5.576;2023-05-10T09:46:21;3.38;;;1.90;;
67819;SDS011;54618;52.018;5.576;2023-05-10T09:48:47;3.58;;;2.00;;
67819;SDS011;54618;52.018;5.576;2023-05-10T09:51:23;3.75;;;2.00;;
67819;SDS011;54618;52.018;5.576;2023-05-10T09:56:35;4.60;;;2.05;;
67819;SDS011;54618;52.018;5.576;2023-05-10T09:59:02;3.50;;;2.00;;
67819;SDS011;54618;52.018;5.576;2023-05-10T10:01:28;3.80;;;2.17;;
67819;SDS011;54618;52.018;5.576;2023-05-10T10:03:54;2.83;;;1.73;;
67819;SDS011;54618;52.018;5.576;2023-05-10T10:06:22;3.20;;;2.00;;
67819;SDS011;54618;52.018;5.576;2023-05-10T10:08:48;3.95;;;1.88;;
67819;SDS011;54618;52.018;5.576;2023-05-10T10:11:15;2.80;;;1.80;;
67819;SDS011;54618;52.018;5.576;2023-05-10T10:13:40;3.75;;;1.85;;
67819;SDS011;54618;52.018;5.576;2023-05-10T10:16:06;3.88;;;1.90;;
67819;SDS011;54618;52.018;5.576;2023-05-10T10:18:33;3.25;;;1.90;;
67819;SDS011;54618;52.018;5.576;2023-05-10T10:21:03;3.78;;;2.00;;
67819;SDS011;54618;52.018;5.576;2023-05-10T10:23:30;2.83;;;1.85;;
67819;SDS011;54618;52.018;5.576;2023-05-10T10:25:56;3.58;;;1.90;;
67819;SDS011;54618;52.018;5.576;2023-05-10T10:28:24;3.20;;;1.80;;
67819;SDS011;54618;52.018;5.576;2023-05-10T10:31:00;3.13;;;1.75;;
67819;SDS011;54618;52.018;5.576;2023-05-10T10:36:20;3.47;;;2.20;;
67819;SDS011;54618;52.018;5.576;2023-05-10T10:41:29;3.35;;;1.77;;
67819;SDS011;54618;52.018;5.576;2023-05-10T10:49:42;4.03;;;1.90;;
67819;SDS011;54618;52.018;5.576;2023-05-10T10:52:13;2.78;;;1.80;;
67819;SDS011;54618;52.018;5.576;2023-05-10T10:57:14;2.78;;;1.70;;
67819;SDS011;54618;52.018;5.576;2023-05-10T10:59:42;2.53;;;1.60;;
67819;SDS011;54618;52.018;5.576;2023-05-10T11:02:33;3.20;;;1.92;;
67819;SDS011;54618;52.018;5.576;2023-05-10T11:04:58;2.92;;;1.80;;
67819;SDS011;54618;52.018;5.576;2023-05-10T11:07:24;2.83;;;1.90;;
67819;SDS011;54618;52.018;5.576;2023-05-10T11:09:49;2.90;;;2.00;;
67819;SDS011;54618;52.018;5.576;2023-05-10T11:12:15;2.80;;;1.70;;
67819;SDS011;54618;52.018;5.576;2023-05-10T11:14:41;3.35;;;2.03;;
67819;SDS011;54618;52.018;5.576;2023-05-10T11:17:27;3.20;;;1.88;;
67819;SDS011;54618;52.018;5.576;2023-05-10T11:20:06;2.53;;;1.75;;
67819;SDS011;54618;52.018;5.576;2023-05-10T11:22:51;3.60;;;1.90;;
67819;SDS011;54618;52.018;5.576;2023-05-10T11:25:17;3.00;;;1.92;;
67819;SDS011;54618;52.018;5.576;2023-05-10T11:27:43;3.15;;;1.80;;
67819;SDS011;54618;52.018;5.576;2023-05-10T11:30:10;2.63;;;1.60;;
67819;SDS011;54618;52.018;5.576;2023-05-10T11:32:39;2.50;;;1.70;;
67819;SDS011;54618;52.018;5.576;2023-05-10T11:35:08;3.60;;;2.08;;
67819;SDS011;54618;52.018;5.576;2023-05-10T11:37:35;2.67;;;1.70;;
67819;SDS011;54618;52.018;5.576;2023-05-10T11:40:01;3.03;;;1.80;;
67819;SDS011;54618;52.018;5.576;2023-05-10T11:42:27;3.05;;;1.75;;
67819;SDS011;54618;52.018;5.576;2023-05-10T11:44:53;2.60;;;1.85;;
67819;SDS011;54618;52.018;5.576;2023-05-10T11:47:19;2.67;;;1.77;;
67819;SDS011;54618;52.018;5.576;2023-05-10T11:49:45;2.83;;;1.63;;
67819;SDS011;54618;52.018;5.576;2023-05-10T11:52:11;2.60;;;1.85;;
67819;SDS011;54618;52.018;5.576;2023-05-10T11:54:36;2.70;;;1.77;;
67819;SDS011;54618;52.018;5.576;2023-05-10T11:57:02;3.17;;;1.92;;
67819;SDS011;54618;52.018;5.576;2023-05-10T11:59:28;3.42;;;1.90;;
67819;SDS011;54618;52.018;5.576;2023-05-10T12:01:53;3.53;;;2.00;;
67819;SDS011;54618;52.018;5.576;2023-05-10T12:04:19;2.50;;;1.60;;
67819;SDS011;54618;52.018;5.576;2023-05-10T12:06:45;4.20;;;1.55;;
67819;SDS011;54618;52.018;5.576;2023-05-10T12:09:11;2.80;;;1.70;;
67819;SDS011;54618;52.018;5.576;2023-05-10T12:11:37;2.47;;;1.65;;
67819;SDS011;54618;52.018;5.576;2023-05-10T12:14:05;3.35;;;1.83;;
67819;SDS011;54618;52.018;5.576;2023-05-10T12:16:30;3.38;;;1.95;;
67819;SDS011;54618;52.018;5.576;2023-05-10T12:18:57;3.33;;;1.60;;
67819;SDS011;54618;52.018;5.576;2023-05-10T12:21:24;2.67;;;1.63;;
67819;SDS011;54618;52.018;5.576;2023-05-10T12:23:51;3.33;;;1.60;;
67819;SDS011;54618;52.018;5.576;2023-05-10T12:26:18;3.33;;;1.80;;
67819;SDS011;54618;52.018;5.576;2023-05-10T12:28:46;5.03;;;1.70;;
67819;SDS011;54618;52.018;5.576;2023-05-10T12:31:12;9.15;;;1.90;;
67819;SDS011;54618;52.018;5.576;2023-05-10T12:33:38;3.80;;;1.80;;
67819;SDS011;54618;52.018;5.576;2023-05-10T12:36:07;3.15;;;1.80;;
67819;SDS011;54618;52.018;5.576;2023-05-10T12:38:37;2.80;;;1.60;;
67819;SDS011;54618;52.018;5.576;2023-05-10T12:41:08;3.50;;;1.70;;
67819;SDS011;54618;52.018;5.576;2023-05-10T12:43:35;3.08;;;1.80;;
67819;SDS011;54618;52.018;5.576;2023-05-10T12:46:05;2.40;;;1.58;;
67819;SDS011;54618;52.018;5.576;2023-05-10T12:48:30;2.58;;;1.70;;
67819;SDS011;54618;52.018;5.576;2023-05-10T12:50:56;3.03;;;1.70;;
67819;SDS011;54618;52.018;5.576;2023-05-10T12:53:22;3.35;;;1.50;;
67819;SDS011;54618;52.018;5.576;2023-05-10T12:55:47;2.95;;;1.60;;
67819;SDS011;54618;52.018;5.576;2023-05-10T12:58:13;3.83;;;1.60;;
67819;SDS011;54618;52.018;5.576;2023-05-10T13:00:39;2.55;;;1.60;;
67819;SDS011;54618;52.018;5.576;2023-05-10T13:03:04;3.05;;;1.50;;
67819;SDS011;54618;52.018;5.576;2023-05-10T13:05:31;3.13;;;1.60;;
67819;SDS011;54618;52.018;5.576;2023-05-10T13:08:00;2.80;;;1.42;;
67819;SDS011;54618;52.018;5.576;2023-05-10T13:10:26;3.38;;;1.98;;
67819;SDS011;54618;52.018;5.576;2023-05-10T13:12:52;4.10;;;1.60;;
67819;SDS011;54618;52.018;5.576;2023-05-10T13:15:18;3.17;;;1.45;;
67819;SDS011;54618;52.018;5.576;2023-05-10T13:17:43;3.13;;;1.73;;
67819;SDS011;54618;52.018;5.576;2023-05-10T13:20:10;3.10;;;1.60;;
67819;SDS011;54618;52.018;5.576;2023-05-10T13:22:36;2.90;;;1.60;;
67819;SDS011;54618;52.018;5.576;2023-05-10T13:25:01;5.68;;;1.75;;
67819;SDS011;54618;52.018;5.576;2023-05-10T13:27:27;2.70;;;1.50;;
67819;SDS011;54618;52.018;5.576;2023-05-10T13:29:53;2.72;;;1.63;;
67819;SDS011;54618;52.018;5.576;2023-05-10T13:32:19;3.13;;;1.50;;
67819;SDS011;54618;52.018;5.576;2023-05-10T13:34:45;3.42;;;1.50;;
67819;SDS011;54618;52.018;5.576;2023-05-10T13:37:11;3.10;;;1.70;;
67819;SDS011;54618;52.018;5.576;2023-05-10T13:39:36;2.67;;;1.50;;
67819;SDS011;54618;52.018;5.576;2023-05-10T13:42:02;4.07;;;1.77;;
67819;SDS011;54618;52.018;5.576;2023-05-10T13:44:28;2.85;;;1.70;;
67819;SDS011;54618;52.018;5.576;2023-05-10T13:46:55;2.40;;;1.55;;
67819;SDS011;54618;52.018;5.576;2023-05-10T13:49:21;3.40;;;1.52;;
67819;SDS011;54618;52.018;5.576;2023-05-10T13:51:47;2.20;;;1.48;;
67819;SDS011;54618;52.018;5.576;2023-05-10T13:54:12;3.55;;;1.50;;
67819;SDS011;54618;52.018;5.576;2023-05-10T13:56:38;4.22;;;1.70;;
67819;SDS011;54618;52.018;5.576;2023-05-10T13:59:04;2.85;;;1.50;;
67819;SDS011;54618;52.018;5.576;2023-05-10T14:01:30;4.40;;;1.55;;
67819;SDS011;54618;52.018;5.576;2023-05-10T14:03:56;4.00;;;1.58;;
67819;SDS011;54618;52.018;5.576;2023-05-10T14:06:21;5.07;;;1.80;;
67819;SDS011;54618;52.018;5.576;2023-05-10T14:08:47;4.22;;;1.50;;
67819;SDS011;54618;52.018;5.576;2023-05-10T14:11:12;4.88;;;1.75;;
67819;SDS011;54618;52.018;5.576;2023-05-10T14:13:39;3.10;;;1.48;;
67819;SDS011;54618;52.018;5.576;2023-05-10T14:16:04;2.97;;;1.60;;
67819;SDS011;54618;52.018;5.576;2023-05-10T14:18:30;2.80;;;1.65;;
67819;SDS011;54618;52.018;5.576;2023-05-10T14:20:56;3.85;;;1.77;;
67819;SDS011;54618;52.018;5.576;2023-05-10T14:23:22;3.30;;;1.60;;
67819;SDS011;54618;52.018;5.576;2023-05-10T14:25:51;3.17;;;1.65;;
67819;SDS011;54618;52.018;5.576;2023-05-10T14:28:17;3.13;;;1.55;;
67819;SDS011;54618;52.018;5.576;2023-05-10T14:30:43;5.40;;;1.63;;
67819;SDS011;54618;52.018;5.576;2023-05-10T14:33:09;2.65;;;1.58;;
67819;SDS011;54618;52.018;5.576;2023-05-10T14:35:35;3.33;;;1.60;;
67819;SDS011;54618;52.018;5.576;2023-05-10T14:38:01;2.72;;;1.50;;
67819;SDS011;54618;52.018;5.576;2023-05-10T14:40:28;3.40;;;1.90;;
67819;SDS011;54618;52.018;5.576;2023-05-10T14:42:54;2.47;;;1.42;;
67819;SDS011;54618;52.018;5.576;2023-05-10T14:45:20;2.10;;;1.30;;
67819;SDS011;54618;52.018;5.576;2023-05-10T14:47:46;2.92;;;1.77;;
67819;SDS011;54618;52.018;5.576;2023-05-10T14:50:11;3.78;;;1.40;;
67819;SDS011;54618;52.018;5.576;2023-05-10T14:52:37;3.65;;;1.70;;
67819;SDS011;54618;52.018;5.576;2023-05-10T14:55:02;2.40;;;1.40;;
67819;SDS011;54618;52.018;5.576;2023-05-10T14:57:28;3.65;;;1.95;;
67819;SDS011;54618;52.018;5.576;2023-05-10T14:59:54;2.75;;;1.50;;
67819;SDS011;54618;52.018;5.576;2023-05-10T15:02:21;6.00;;;1.70;;
67819;SDS011;54618;52.018;5.576;2023-05-10T15:04:46;3.28;;;1.65;;
67819;SDS011;54618;52.018;5.576;2023-05-10T15:07:12;4.65;;;1.50;;
67819;SDS011;54618;52.018;5.576;2023-05-10T15:09:39;3.92;;;1.45;;
67819;SDS011;54618;52.018;5.576;2023-05-10T15:12:05;3.53;;;1.60;;